sensor_id;sensor_type;location;lat;lon;timestamp;pressure;altitude;pressure_sealevel;temperature;humidity
34177;BME280;20450;49.074;9.158;2023-12-29T00:00:50;99826.56;;;10.61;82.00
34177;BME280;20450;49.074;9.158;2023-12-29T00:03:17;99821.16;;;10.61;82.18
34177;BME280;20450;49.074;9.158;2023-12-29T00:05:44;99825.28;;;10.70;82.09
34177;BME280;20450;49.074;9.158;2023-12-29T00:08:11;99818.66;;;10.66;81.15
34177;BME280;20450;49.074;9.158;2023-12-29T00:10:38;99805.53;;;10.76;81.32
34177;BME280;20450;49.074;9.158;2023-12-29T00:13:08;99796.69;;;10.37;83.03
34177;BME280;20450;49.074;9.158;2023-12-29T00:15:35;99809.16;;;10.25;83.81
34177;BME280;20450;49.074;9.158;2023-12-29T00:18:05;99809.16;;;10.18;83.47
34177;BME280;20450;49.074;9.158;2023-12-29T00:20:33;99806.25;;;10.20;84.06
34177;BME280;20450;49.074;9.158;2023-12-29T00:23:07;99811.00;;;10.37;82.95
34177;BME280;20450;49.074;9.158;2023-12-29T00:25:35;99806.66;;;10.36;83.26
34177;BME280;20450;49.074;9.158;2023-12-29T00:28:05;99806.22;;;10.39;83.01
34177;BME280;20450;49.074;9.158;2023-12-29T00:30:39;99813.28;;;10.40;82.30
34177;BME280;20450;49.074;9.158;2023-12-29T00:33:26;99817.25;;;10.38;82.85
34177;BME280;20450;49.074;9.158;2023-12-29T00:35:57;99819.13;;;10.50;83.42
34177;BME280;20450;49.074;9.158;2023-12-29T00:38:25;99815.34;;;10.45;83.60
34177;BME280;20450;49.074;9.158;2023-12-29T00:40:55;99814.13;;;10.47;83.02
34177;BME280;20450;49.074;9.158;2023-12-29T00:43:22;99825.31;;;10.57;82.49
34177;BME280;20450;49.074;9.158;2023-12-29T00:45:50;99817.00;;;10.59;81.93
34177;BME280;20450;49.074;9.158;2023-12-29T00:48:18;99826.34;;;10.69;82.21
34177;BME280;20450;49.074;9.158;2023-12-29T00:50:47;99820.53;;;10.72;81.66
34177;BME280;20450;49.074;9.158;2023-12-29T00:53:14;99827.41;;;10.68;82.35
34177;BME280;20450;49.074;9.158;2023-12-29T00:55:41;99832.38;;;10.65;83.54
34177;BME280;20450;49.074;9.158;2023-12-29T00:58:09;99830.09;;;10.68;83.97
34177;BME280;20450;49.074;9.158;2023-12-29T01:00:36;99827.34;;;10.75;84.33
34177;BME280;20450;49.074;9.158;2023-12-29T01:03:07;99829.03;;;10.69;84.35
34177;BME280;20450;49.074;9.158;2023-12-29T01:08:42;99828.88;;;10.51;86.19
34177;BME280;20450;49.074;9.158;2023-12-29T01:11:16;99826.56;;;10.42;87.23
34177;BME280;20450;49.074;9.158;2023-12-29T01:13:46;99831.13;;;10.67;86.63
34177;BME280;20450;49.074;9.158;2023-12-29T01:16:37;99826.38;;;10.43;87.26
34177;BME280;20450;49.074;9.158;2023-12-29T01:19:07;99821.38;;;10.40;87.58
34177;BME280;20450;49.074;9.158;2023-12-29T01:21:37;99814.53;;;10.38;87.63
34177;BME280;20450;49.074;9.158;2023-12-29T01:24:12;99817.63;;;10.54;87.67
34177;BME280;20450;49.074;9.158;2023-12-29T01:26:45;99810.56;;;10.66;87.30
34177;BME280;20450;49.074;9.158;2023-12-29T01:29:14;99806.63;;;10.62;87.55
34177;BME280;20450;49.074;9.158;2023-12-29T01:31:42;99809.97;;;10.38;88.25
34177;BME280;20450;49.074;9.158;2023-12-29T01:34:13;99819.28;;;10.55;88.12
34177;BME280;20450;49.074;9.158;2023-12-29T01:36:42;99810.78;;;10.45;88.01
34177;BME280;20450;49.074;9.158;2023-12-29T01:39:10;99812.88;;;10.56;87.76
34177;BME280;20450;49.074;9.158;2023-12-29T01:41:37;99807.00;;;10.72;86.56
34177;BME280;20450;49.074;9.158;2023-12-29T01:44:19;99811.41;;;10.54;86.43
34177;BME280;20450;49.074;9.158;2023-12-29T01:46:49;99807.84;;;10.66;86.66
34177;BME280;20450;49.074;9.158;2023-12-29T01:49:21;99799.91;;;10.78;85.59
34177;BME280;20450;49.074;9.158;2023-12-29T01:51:50;99799.44;;;10.94;84.80
34177;BME280;20450;49.074;9.158;2023-12-29T01:54:21;99800.28;;;11.01;84.86
34177;BME280;20450;49.074;9.158;2023-12-29T01:56:52;99799.69;;;10.86;85.06
34177;BME280;20450;49.074;9.158;2023-12-29T01:59:24;99795.53;;;10.90;84.03
34177;BME280;20450;49.074;9.158;2023-12-29T02:01:53;99799.75;;;10.66;85.63
34177;BME280;20450;49.074;9.158;2023-12-29T02:04:23;99800.75;;;10.72;84.89
34177;BME280;20450;49.074;9.158;2023-12-29T02:06:52;99793.22;;;10.93;84.43
34177;BME280;20450;49.074;9.158;2023-12-29T02:09:21;99793.59;;;11.03;83.69
34177;BME280;20450;49.074;9.158;2023-12-29T02:11:49;99788.56;;;11.13;83.44
34177;BME280;20450;49.074;9.158;2023-12-29T02:14:18;99795.72;;;10.95;83.55
34177;BME280;20450;49.074;9.158;2023-12-29T02:17:14;99788.97;;;11.10;82.66
34177;BME280;20450;49.074;9.158;2023-12-29T02:20:01;99787.13;;;11.04;82.80
34177;BME280;20450;49.074;9.158;2023-12-29T02:22:30;99778.59;;;11.07;82.33
34177;BME280;20450;49.074;9.158;2023-12-29T02:25:00;99779.94;;;10.85;82.89
34177;BME280;20450;49.074;9.158;2023-12-29T02:27:34;99779.09;;;10.91;82.47
34177;BME280;20450;49.074;9.158;2023-12-29T02:30:17;99770.03;;;10.66;83.05
34177;BME280;20450;49.074;9.158;2023-12-29T02:32:49;99766.28;;;10.67;82.75
34177;BME280;20450;49.074;9.158;2023-12-29T02:35:23;99760.72;;;10.62;82.75
34177;BME280;20450;49.074;9.158;2023-12-29T02:37:53;99761.72;;;10.61;82.92
34177;BME280;20450;49.074;9.158;2023-12-29T02:40:24;99760.81;;;10.87;81.98
34177;BME280;20450;49.074;9.158;2023-12-29T02:42:52;99755.41;;;10.87;81.34
34177;BME280;20450;49.074;9.158;2023-12-29T02:45:20;99757.91;;;10.88;80.87
34177;BME280;20450;49.074;9.158;2023-12-29T02:47:48;99749.78;;;10.95;81.68
34177;BME280;20450;49.074;9.158;2023-12-29T02:50:16;99753.34;;;10.76;81.99
34177;BME280;20450;49.074;9.158;2023-12-29T02:52:43;99763.66;;;10.98;81.07
34177;BME280;20450;49.074;9.158;2023-12-29T02:55:11;99744.50;;;11.06;80.14
34177;BME280;20450;49.074;9.158;2023-12-29T02:57:44;99748.88;;;11.07;80.89
34177;BME280;20450;49.074;9.158;2023-12-29T03:00:12;99756.69;;;10.84;80.88
34177;BME280;20450;49.074;9.158;2023-12-29T03:02:54;99755.63;;;10.85;81.19
34177;BME280;20450;49.074;9.158;2023-12-29T03:05:24;99754.88;;;10.65;81.68
34177;BME280;20450;49.074;9.158;2023-12-29T03:07:54;99750.06;;;10.67;81.67
34177;BME280;20450;49.074;9.158;2023-12-29T03:10:23;99746.16;;;10.63;82.11
34177;BME280;20450;49.074;9.158;2023-12-29T03:12:51;99750.88;;;10.74;81.63
34177;BME280;20450;49.074;9.158;2023-12-29T03:15:19;99746.53;;;10.73;80.93
34177;BME280;20450;49.074;9.158;2023-12-29T03:17:47;99754.19;;;10.76;81.03
34177;BME280;20450;49.074;9.158;2023-12-29T03:20:14;99740.06;;;10.74;81.22
34177;BME280;20450;49.074;9.158;2023-12-29T03:22:41;99745.44;;;10.81;81.46
34177;BME280;20450;49.074;9.158;2023-12-29T03:25:08;99731.09;;;10.80;81.85
34177;BME280;20450;49.074;9.158;2023-12-29T03:27:36;99732.19;;;10.73;81.89
34177;BME280;20450;49.074;9.158;2023-12-29T03:30:06;99729.94;;;10.63;82.44
34177;BME280;20450;49.074;9.158;2023-12-29T03:32:35;99738.88;;;10.64;82.70
34177;BME280;20450;49.074;9.158;2023-12-29T03:35:06;99729.31;;;10.68;81.72
34177;BME280;20450;49.074;9.158;2023-12-29T03:37:33;99737.16;;;10.76;80.98
34177;BME280;20450;49.074;9.158;2023-12-29T03:40:00;99733.22;;;10.78;81.85
34177;BME280;20450;49.074;9.158;2023-12-29T03:42:29;99733.56;;;10.88;80.83
34177;BME280;20450;49.074;9.158;2023-12-29T03:44:56;99734.00;;;10.79;81.19
34177;BME280;20450;49.074;9.158;2023-12-29T03:47:24;99735.84;;;10.91;81.11
34177;BME280;20450;49.074;9.158;2023-12-29T03:49:51;99744.59;;;10.93;81.05
34177;BME280;20450;49.074;9.158;2023-12-29T03:52:18;99744.59;;;10.93;81.67
34177;BME280;20450;49.074;9.158;2023-12-29T03:54:47;99738.06;;;11.07;80.57
34177;BME280;20450;49.074;9.158;2023-12-29T03:57:14;99732.94;;;10.86;81.87
34177;BME280;20450;49.074;9.158;2023-12-29T03:59:41;99732.94;;;10.93;81.85
34177;BME280;20450;49.074;9.158;2023-12-29T04:02:08;99730.03;;;10.88;81.57
34177;BME280;20450;49.074;9.158;2023-12-29T04:04:37;99738.03;;;10.70;82.35
34177;BME280;20450;49.074;9.158;2023-12-29T04:07:09;99719.88;;;10.83;82.16
34177;BME280;20450;49.074;9.158;2023-12-29T04:09:39;99718.34;;;11.00;81.38
34177;BME280;20450;49.074;9.158;2023-12-29T04:12:07;99715.06;;;10.92;82.57
34177;BME280;20450;49.074;9.158;2023-12-29T04:14:42;99713.94;;;10.68;82.80
34177;BME280;20450;49.074;9.158;2023-12-29T04:18:29;99706.41;;;10.70;82.97
34177;BME280;20450;49.074;9.158;2023-12-29T04:24:09;99709.75;;;10.72;82.79
34177;BME280;20450;49.074;9.158;2023-12-29T04:26:39;99707.66;;;10.74;83.19
34177;BME280;20450;49.074;9.158;2023-12-29T04:29:06;99727.22;;;10.70;83.47
34177;BME280;20450;49.074;9.158;2023-12-29T04:31:35;99730.94;;;10.69;83.99
34177;BME280;20450;49.074;9.158;2023-12-29T04:34:09;99734.72;;;10.61;84.16
34177;BME280;20450;49.074;9.158;2023-12-29T04:39:52;99740.31;;;10.73;85.54
34177;BME280;20450;49.074;9.158;2023-12-29T04:42:22;99737.25;;;10.56;86.40
34177;BME280;20450;49.074;9.158;2023-12-29T04:44:52;99742.84;;;10.55;86.73
34177;BME280;20450;49.074;9.158;2023-12-29T04:47:19;99742.66;;;10.43;87.70
34177;BME280;20450;49.074;9.158;2023-12-29T04:52:26;99736.91;;;10.27;87.29
34177;BME280;20450;49.074;9.158;2023-12-29T04:55:00;99741.41;;;10.46;87.06
34177;BME280;20450;49.074;9.158;2023-12-29T04:57:27;99753.66;;;10.55;87.96
34177;BME280;20450;49.074;9.158;2023-12-29T04:59:55;99749.75;;;10.31;89.55
34177;BME280;20450;49.074;9.158;2023-12-29T05:05:18;99759.72;;;10.31;90.22
34177;BME280;20450;49.074;9.158;2023-12-29T05:07:45;99754.56;;;10.16;90.56
34177;BME280;20450;49.074;9.158;2023-12-29T05:10:13;99755.56;;;10.35;89.47
34177;BME280;20450;49.074;9.158;2023-12-29T05:12:40;99750.19;;;10.15;90.51
34177;BME280;20450;49.074;9.158;2023-12-29T05:15:08;99746.69;;;10.15;91.43
34177;BME280;20450;49.074;9.158;2023-12-29T05:17:35;99754.75;;;10.28;91.83
34177;BME280;20450;49.074;9.158;2023-12-29T05:20:02;99746.88;;;10.13;91.47
34177;BME280;20450;49.074;9.158;2023-12-29T05:22:30;99753.91;;;10.27;90.68
34177;BME280;20450;49.074;9.158;2023-12-29T05:24:57;99754.16;;;10.19;90.91
34177;BME280;20450;49.074;9.158;2023-12-29T05:27:26;99755.38;;;10.17;91.47
34177;BME280;20450;49.074;9.158;2023-12-29T05:29:53;99749.38;;;10.15;91.73
34177;BME280;20450;49.074;9.158;2023-12-29T05:32:20;99754.34;;;9.98;92.96
34177;BME280;20450;49.074;9.158;2023-12-29T05:34:47;99764.72;;;10.14;92.85
34177;BME280;20450;49.074;9.158;2023-12-29T05:37:15;99763.47;;;10.23;93.21
34177;BME280;20450;49.074;9.158;2023-12-29T05:39:43;99756.00;;;10.06;93.83
34177;BME280;20450;49.074;9.158;2023-12-29T05:42:10;99762.00;;;10.01;95.08
34177;BME280;20450;49.074;9.158;2023-12-29T05:44:39;99755.34;;;9.97;94.80
34177;BME280;20450;49.074;9.158;2023-12-29T05:47:06;99755.78;;;9.81;96.60
34177;BME280;20450;49.074;9.158;2023-12-29T05:49:33;99759.50;;;9.86;96.15
34177;BME280;20450;49.074;9.158;2023-12-29T05:52:00;99759.72;;;9.98;96.83
34177;BME280;20450;49.074;9.158;2023-12-29T05:54:27;99763.25;;;9.92;96.47
34177;BME280;20450;49.074;9.158;2023-12-29T05:56:54;99761.59;;;9.91;96.86
34177;BME280;20450;49.074;9.158;2023-12-29T05:59:21;99769.69;;;9.91;97.08
34177;BME280;20450;49.074;9.158;2023-12-29T06:01:50;99772.38;;;9.97;96.78
34177;BME280;20450;49.074;9.158;2023-12-29T06:04:17;99770.75;;;10.10;97.09
34177;BME280;20450;49.074;9.158;2023-12-29T06:06:44;99758.06;;;10.03;97.01
34177;BME280;20450;49.074;9.158;2023-12-29T06:09:11;99749.56;;;9.74;97.46
34177;BME280;20450;49.074;9.158;2023-12-29T06:11:39;99750.38;;;9.68;98.35
34177;BME280;20450;49.074;9.158;2023-12-29T06:14:08;99747.69;;;9.74;97.82
34177;BME280;20450;49.074;9.158;2023-12-29T06:16:35;99752.03;;;9.69;97.88
34177;BME280;20450;49.074;9.158;2023-12-29T06:19:04;99739.59;;;9.74;97.22
34177;BME280;20450;49.074;9.158;2023-12-29T06:21:31;99734.19;;;9.68;96.81
34177;BME280;20450;49.074;9.158;2023-12-29T06:23:58;99735.22;;;9.73;96.94
34177;BME280;20450;49.074;9.158;2023-12-29T06:26:26;99740.84;;;9.65;96.90
34177;BME280;20450;49.074;9.158;2023-12-29T06:28:53;99743.53;;;9.78;96.42
34177;BME280;20450;49.074;9.158;2023-12-29T06:31:20;99742.09;;;9.76;96.37
34177;BME280;20450;49.074;9.158;2023-12-29T06:33:47;99741.47;;;9.74;96.38
34177;BME280;20450;49.074;9.158;2023-12-29T06:36:16;99738.34;;;9.77;96.50
34177;BME280;20450;49.074;9.158;2023-12-29T06:38:45;99740.22;;;9.70;96.29
34177;BME280;20450;49.074;9.158;2023-12-29T06:41:12;99738.56;;;9.95;95.34
34177;BME280;20450;49.074;9.158;2023-12-29T06:43:39;99736.69;;;9.82;94.83
34177;BME280;20450;49.074;9.158;2023-12-29T06:46:07;99735.03;;;9.75;95.61
34177;BME280;20450;49.074;9.158;2023-12-29T06:48:36;99743.13;;;9.75;95.09
34177;BME280;20450;49.074;9.158;2023-12-29T06:51:05;99729.41;;;9.76;94.63
34177;BME280;20450;49.074;9.158;2023-12-29T06:53:34;99741.06;;;9.77;94.75
34177;BME280;20450;49.074;9.158;2023-12-29T06:56:03;99742.50;;;9.66;95.51
34177;BME280;20450;49.074;9.158;2023-12-29T06:58:33;99738.75;;;9.80;95.05
34177;BME280;20450;49.074;9.158;2023-12-29T07:01:03;99740.00;;;9.65;95.46
34177;BME280;20450;49.074;9.158;2023-12-29T07:03:30;99741.69;;;9.79;95.27
34177;BME280;20450;49.074;9.158;2023-12-29T07:06:00;99737.72;;;9.94;94.99
34177;BME280;20450;49.074;9.158;2023-12-29T07:08:27;99748.50;;;9.88;93.77
34177;BME280;20450;49.074;9.158;2023-12-29T07:10:56;99750.81;;;10.04;92.88
34177;BME280;20450;49.074;9.158;2023-12-29T07:13:23;99754.53;;;9.70;94.62
34177;BME280;20450;49.074;9.158;2023-12-29T07:15:51;99745.78;;;9.55;95.86
34177;BME280;20450;49.074;9.158;2023-12-29T07:18:18;99746.41;;;9.38;96.50
34177;BME280;20450;49.074;9.158;2023-12-29T07:20:45;99753.44;;;9.39;96.82
34177;BME280;20450;49.074;9.158;2023-12-29T07:23:12;99737.50;;;9.50;96.08
34177;BME280;20450;49.074;9.158;2023-12-29T07:25:39;99741.00;;;9.51;96.16
34177;BME280;20450;49.074;9.158;2023-12-29T07:28:08;99737.50;;;9.63;94.67
34177;BME280;20450;49.074;9.158;2023-12-29T07:30:35;99721.13;;;9.65;94.80
34177;BME280;20450;49.074;9.158;2023-12-29T07:33:03;99727.13;;;9.47;95.61
34177;BME280;20450;49.074;9.158;2023-12-29T07:35:30;99724.66;;;9.59;95.40
34177;BME280;20450;49.074;9.158;2023-12-29T07:37:57;99736.50;;;9.77;93.96
34177;BME280;20450;49.074;9.158;2023-12-29T07:40:26;99727.97;;;9.80;93.98
34177;BME280;20450;49.074;9.158;2023-12-29T07:42:53;99729.63;;;9.88;92.82
34177;BME280;20450;49.074;9.158;2023-12-29T07:45:22;99729.63;;;9.94;92.03
34177;BME280;20450;49.074;9.158;2023-12-29T07:47:49;99726.28;;;9.92;93.40
34177;BME280;20450;49.074;9.158;2023-12-29T07:50:18;99743.94;;;10.21;91.80
34177;BME280;20450;49.074;9.158;2023-12-29T07:52:46;99731.06;;;10.36;91.47
34177;BME280;20450;49.074;9.158;2023-12-29T07:55:13;99740.78;;;10.50;90.60
34177;BME280;20450;49.074;9.158;2023-12-29T07:57:40;99744.50;;;10.56;90.43
34177;BME280;20450;49.074;9.158;2023-12-29T08:00:08;99743.69;;;10.49;89.55
34177;BME280;20450;49.074;9.158;2023-12-29T08:02:41;99745.59;;;10.29;90.14
34177;BME280;20450;49.074;9.158;2023-12-29T08:05:08;99752.69;;;10.17;90.73
34177;BME280;20450;49.074;9.158;2023-12-29T08:07:37;99753.53;;;10.24;91.31
34177;BME280;20450;49.074;9.158;2023-12-29T08:10:06;99752.69;;;10.23;90.58
34177;BME280;20450;49.074;9.158;2023-12-29T08:12:35;99744.78;;;10.02;91.39
34177;BME280;20450;49.074;9.158;2023-12-29T08:15:03;99750.22;;;10.09;91.79
34177;BME280;20450;49.074;9.158;2023-12-29T08:17:31;99746.25;;;10.11;91.87
34177;BME280;20450;49.074;9.158;2023-12-29T08:20:00;99751.84;;;10.10;92.02
34177;BME280;20450;49.074;9.158;2023-12-29T08:22:29;99753.94;;;10.14;91.37
34177;BME280;20450;49.074;9.158;2023-12-29T08:24:57;99756.41;;;10.02;92.51
34177;BME280;20450;49.074;9.158;2023-12-29T08:27:25;99744.56;;;10.30;92.61
34177;BME280;20450;49.074;9.158;2023-12-29T08:29:52;99762.66;;;10.16;92.39
34177;BME280;20450;49.074;9.158;2023-12-29T08:32:19;99758.06;;;10.43;92.37
34177;BME280;20450;49.074;9.158;2023-12-29T08:34:46;99752.59;;;10.62;90.75
34177;BME280;20450;49.074;9.158;2023-12-29T08:37:15;99756.31;;;10.61;91.40
34177;BME280;20450;49.074;9.158;2023-12-29T08:39:42;99754.25;;;10.70;90.78
34177;BME280;20450;49.074;9.158;2023-12-29T08:42:09;99761.88;;;10.79;90.54
34177;BME280;20450;49.074;9.158;2023-12-29T08:44:36;99758.97;;;10.81;89.90
34177;BME280;20450;49.074;9.158;2023-12-29T08:47:03;99767.69;;;10.83;90.97
34177;BME280;20450;49.074;9.158;2023-12-29T08:49:30;99768.91;;;10.87;89.91
34177;BME280;20450;49.074;9.158;2023-12-29T08:51:57;99766.00;;;10.95;90.46
34177;BME280;20450;49.074;9.158;2023-12-29T08:54:25;99763.00;;;11.09;90.79
34177;BME280;20450;49.074;9.158;2023-12-29T08:56:53;99763.56;;;11.24;91.18
34177;BME280;20450;49.074;9.158;2023-12-29T08:59:21;99762.03;;;10.91;88.78
34177;BME280;20450;49.074;9.158;2023-12-29T09:01:48;99759.53;;;10.89;90.09
34177;BME280;20450;49.074;9.158;2023-12-29T09:04:15;99764.31;;;10.94;90.13
34177;BME280;20450;49.074;9.158;2023-12-29T09:06:42;99772.94;;;10.71;90.91
34177;BME280;20450;49.074;9.158;2023-12-29T09:09:09;99776.69;;;10.57;90.89
34177;BME280;20450;49.074;9.158;2023-12-29T09:11:38;99768.59;;;10.64;90.74
34177;BME280;20450;49.074;9.158;2023-12-29T09:14:05;99770.88;;;10.67;90.74
34177;BME280;20450;49.074;9.158;2023-12-29T09:16:32;99775.22;;;10.68;91.43
34177;BME280;20450;49.074;9.158;2023-12-29T09:19:01;99783.78;;;10.52;91.77
34177;BME280;20450;49.074;9.158;2023-12-29T09:21:51;99777.28;;;10.72;93.14
34177;BME280;20450;49.074;9.158;2023-12-29T09:24:18;99782.88;;;10.77;92.16
34177;BME280;20450;49.074;9.158;2023-12-29T09:26:46;99762.16;;;10.58;91.23
34177;BME280;20450;49.074;9.158;2023-12-29T09:29:13;99784.84;;;10.44;91.99
34177;BME280;20450;49.074;9.158;2023-12-29T09:31:41;99787.50;;;10.51;91.95
34177;BME280;20450;49.074;9.158;2023-12-29T09:34:08;99781.47;;;10.55;92.42
34177;BME280;20450;49.074;9.158;2023-12-29T09:36:35;99777.56;;;10.51;92.06
34177;BME280;20450;49.074;9.158;2023-12-29T09:39:02;99786.47;;;10.58;92.03
34177;BME280;20450;49.074;9.158;2023-12-29T09:41:31;99789.31;;;10.76;91.18
34177;BME280;20450;49.074;9.158;2023-12-29T09:44:03;99793.25;;;10.80;90.86
34177;BME280;20450;49.074;9.158;2023-12-29T09:46:41;99791.13;;;10.95;89.98
34177;BME280;20450;49.074;9.158;2023-12-29T09:49:10;99789.69;;;10.93;89.70
34177;BME280;20450;49.074;9.158;2023-12-29T09:51:39;99784.22;;;11.06;88.88
34177;BME280;20450;49.074;9.158;2023-12-29T09:54:08;99785.19;;;11.24;89.31
34177;BME280;20450;49.074;9.158;2023-12-29T09:56:40;99790.16;;;11.27;87.53
34177;BME280;20450;49.074;9.158;2023-12-29T09:59:10;99789.56;;;11.56;87.11
34177;BME280;20450;49.074;9.158;2023-12-29T10:01:41;99780.41;;;12.20;83.48
34177;BME280;20450;49.074;9.158;2023-12-29T10:04:11;99778.19;;;12.89;80.73
34177;BME280;20450;49.074;9.158;2023-12-29T10:06:41;99767.72;;;12.56;80.90
34177;BME280;20450;49.074;9.158;2023-12-29T10:09:14;99773.47;;;12.48;80.79
34177;BME280;20450;49.074;9.158;2023-12-29T10:11:46;99765.88;;;12.75;79.81
34177;BME280;20450;49.074;9.158;2023-12-29T10:14:22;99767.97;;;13.56;74.23
34177;BME280;20450;49.074;9.158;2023-12-29T10:17:09;99766.72;;;14.23;71.84
34177;BME280;20450;49.074;9.158;2023-12-29T10:19:50;99763.28;;;12.98;76.68
34177;BME280;20450;49.074;9.158;2023-12-29T10:22:32;99760.91;;;12.72;78.79
34177;BME280;20450;49.074;9.158;2023-12-29T10:25:08;99751.88;;;12.78;78.03
34177;BME280;20450;49.074;9.158;2023-12-29T10:27:36;99749.72;;;12.98;76.91
34177;BME280;20450;49.074;9.158;2023-12-29T10:30:10;99756.22;;;13.44;75.15
34177;BME280;20450;49.074;9.158;2023-12-29T10:32:53;99746.50;;;14.31;71.08
34177;BME280;20450;49.074;9.158;2023-12-29T10:35:21;99742.06;;;13.83;73.03
34177;BME280;20450;49.074;9.158;2023-12-29T10:37:52;99740.47;;;14.63;70.76
34177;BME280;20450;49.074;9.158;2023-12-29T10:40:19;99735.41;;;14.32;71.93
34177;BME280;20450;49.074;9.158;2023-12-29T10:42:52;99742.47;;;14.56;69.76
34177;BME280;20450;49.074;9.158;2023-12-29T10:45:21;99724.41;;;14.50;69.57
34177;BME280;20450;49.074;9.158;2023-12-29T10:47:48;99726.25;;;14.04;70.47
34177;BME280;20450;49.074;9.158;2023-12-29T10:50:16;99723.66;;;14.66;69.99
34177;BME280;20450;49.074;9.158;2023-12-29T10:52:43;99716.06;;;14.80;70.06
34177;BME280;20450;49.074;9.158;2023-12-29T10:55:11;99713.06;;;15.32;69.26
34177;BME280;20450;49.074;9.158;2023-12-29T10:57:40;99707.84;;;16.25;64.50
34177;BME280;20450;49.074;9.158;2023-12-29T11:00:09;99714.66;;;16.06;65.00
34177;BME280;20450;49.074;9.158;2023-12-29T11:02:38;99712.88;;;17.89;60.35
34177;BME280;20450;49.074;9.158;2023-12-29T11:05:06;99715.22;;;18.90;55.62
34177;BME280;20450;49.074;9.158;2023-12-29T11:07:35;99694.13;;;17.71;58.48
34177;BME280;20450;49.074;9.158;2023-12-29T11:10:06;99710.50;;;18.34;57.12
34177;BME280;20450;49.074;9.158;2023-12-29T11:12:36;99694.00;;;16.65;60.45
34177;BME280;20450;49.074;9.158;2023-12-29T11:15:05;99699.66;;;17.76;58.35
34177;BME280;20450;49.074;9.158;2023-12-29T11:17:41;99705.09;;;18.08;55.27
34177;BME280;20450;49.074;9.158;2023-12-29T11:20:12;99715.69;;;19.44;51.90
34177;BME280;20450;49.074;9.158;2023-12-29T11:22:39;99710.38;;;19.22;51.43
34177;BME280;20450;49.074;9.158;2023-12-29T11:25:08;99693.00;;;20.04;50.89
34177;BME280;20450;49.074;9.158;2023-12-29T11:27:36;99737.28;;;21.65;43.30
34177;BME280;20450;49.074;9.158;2023-12-29T11:30:04;99752.75;;;22.33;40.89
34177;BME280;20450;49.074;9.158;2023-12-29T11:32:39;99743.28;;;21.72;39.34
34177;BME280;20450;49.074;9.158;2023-12-29T11:35:18;99711.13;;;18.10;47.06
34177;BME280;20450;49.074;9.158;2023-12-29T11:38:07;99688.66;;;18.03;47.05
34177;BME280;20450;49.074;9.158;2023-12-29T11:41:05;99706.50;;;18.98;45.54
34177;BME280;20450;49.074;9.158;2023-12-29T11:43:35;99688.34;;;18.82;45.60
34177;BME280;20450;49.074;9.158;2023-12-29T11:46:03;99707.47;;;19.44;44.17
34177;BME280;20450;49.074;9.158;2023-12-29T11:48:54;99700.97;;;19.80;44.03
34177;BME280;20450;49.074;9.158;2023-12-29T11:51:33;99708.63;;;19.73;43.31
34177;BME280;20450;49.074;9.158;2023-12-29T11:54:02;99702.84;;;19.55;43.23
34177;BME280;20450;49.074;9.158;2023-12-29T11:56:33;99705.88;;;19.58;43.29
34177;BME280;20450;49.074;9.158;2023-12-29T11:59:16;99708.34;;;20.50;41.65
34177;BME280;20450;49.074;9.158;2023-12-29T12:01:47;99727.38;;;21.20;39.79
34177;BME280;20450;49.074;9.158;2023-12-29T12:04:35;99722.06;;;20.45;40.79
34177;BME280;20450;49.074;9.158;2023-12-29T12:07:04;99703.41;;;20.12;40.82
34177;BME280;20450;49.074;9.158;2023-12-29T12:09:32;99695.78;;;20.19;41.74
34177;BME280;20450;49.074;9.158;2023-12-29T12:11:59;99709.34;;;20.89;40.07
34177;BME280;20450;49.074;9.158;2023-12-29T12:14:48;99705.03;;;21.31;39.17
34177;BME280;20450;49.074;9.158;2023-12-29T12:17:30;99724.97;;;20.93;38.84
34177;BME280;20450;49.074;9.158;2023-12-29T12:20:03;99717.25;;;21.59;38.04
34177;BME280;20450;49.074;9.158;2023-12-29T12:22:33;99711.13;;;21.23;38.18
34177;BME280;20450;49.074;9.158;2023-12-29T12:25:05;99723.53;;;21.16;38.03
34177;BME280;20450;49.074;9.158;2023-12-29T12:27:34;99703.97;;;20.04;39.81
34177;BME280;20450;49.074;9.158;2023-12-29T12:30:05;99662.69;;;18.98;42.84
34177;BME280;20450;49.074;9.158;2023-12-29T12:32:34;99635.25;;;17.90;45.22
34177;BME280;20450;49.074;9.158;2023-12-29T12:35:03;99633.59;;;17.52;46.42
34177;BME280;20450;49.074;9.158;2023-12-29T12:37:33;99623.97;;;17.18;48.09
34177;BME280;20450;49.074;9.158;2023-12-29T12:40:00;99618.34;;;16.39;49.67
34177;BME280;20450;49.074;9.158;2023-12-29T12:42:27;99616.50;;;15.85;51.70
34177;BME280;20450;49.074;9.158;2023-12-29T12:44:56;99621.72;;;15.69;52.29
34177;BME280;20450;49.074;9.158;2023-12-29T12:47:36;99626.81;;;15.49;53.00
34177;BME280;20450;49.074;9.158;2023-12-29T12:50:11;99639.22;;;16.12;51.65
34177;BME280;20450;49.074;9.158;2023-12-29T12:52:39;99653.41;;;16.90;49.64
34177;BME280;20450;49.074;9.158;2023-12-29T12:55:11;99650.13;;;17.14;49.19
34177;BME280;20450;49.074;9.158;2023-12-29T12:57:39;99631.75;;;16.83;49.81
34177;BME280;20450;49.074;9.158;2023-12-29T13:00:07;99634.22;;;16.85;49.78
34177;BME280;20450;49.074;9.158;2023-12-29T13:02:36;99625.31;;;16.08;52.42
34177;BME280;20450;49.074;9.158;2023-12-29T13:05:04;99637.53;;;15.89;52.50
34177;BME280;20450;49.074;9.158;2023-12-29T13:07:34;99635.50;;;15.80;53.21
34177;BME280;20450;49.074;9.158;2023-12-29T13:10:03;99626.56;;;15.51;54.11
34177;BME280;20450;49.074;9.158;2023-12-29T13:12:31;99626.72;;;15.44;54.09
34177;BME280;20450;49.074;9.158;2023-12-29T13:15:04;99631.41;;;15.04;55.40
34177;BME280;20450;49.074;9.158;2023-12-29T13:17:32;99632.06;;;14.95;56.22
34177;BME280;20450;49.074;9.158;2023-12-29T13:19:59;99630.94;;;14.79;56.44
34177;BME280;20450;49.074;9.158;2023-12-29T13:22:26;99628.31;;;14.56;57.29
34177;BME280;20450;49.074;9.158;2023-12-29T13:24:56;99635.78;;;14.38;57.25
34177;BME280;20450;49.074;9.158;2023-12-29T13:27:29;99632.28;;;14.37;57.42
34177;BME280;20450;49.074;9.158;2023-12-29T13:29:56;99629.44;;;14.32;58.42
34177;BME280;20450;49.074;9.158;2023-12-29T13:32:26;99632.50;;;14.13;58.94